sensor_id;sensor_type;location;lat;lon;timestamp;temperature;humidity
68235;DHT22;55052;52.056;5.296;2023-07-29T00:01:27;19.10;82.80
68235;DHT22;55052;52.056;5.296;2023-07-29T00:03:53;19.10;82.70
68235;DHT22;55052;52.056;5.296;2023-07-29T00:06:20;19.10;82.80
68235;DHT22;55052;52.056;5.296;2023-07-29T00:08:47;19.00;82.90
68235;DHT22;55052;52.056;5.296;2023-07-29T00:11:14;19.00;82.90
68235;DHT22;55052;52.056;5.296;2023-07-29T00:13:41;19.00;82.90
68235;DHT22;55052;52.056;5.296;2023-07-29T00:16:08;19.00;83.00
68235;DHT22;55052;52.056;5.296;2023-07-29T00:18:34;19.00;83.00
68235;DHT22;55052;52.056;5.296;2023-07-29T00:21:01;19.00;83.10
68235;DHT22;55052;52.056;5.296;2023-07-29T00:23:29;18.90;83.00
68235;DHT22;55052;52.056;5.296;2023-07-29T00:25:56;18.90;83.10
68235;DHT22;55052;52.056;5.296;2023-07-29T00:28:22;18.90;83.10
68235;DHT22;55052;52.056;5.296;2023-07-29T00:30:49;18.90;83.30
68235;DHT22;55052;52.056;5.296;2023-07-29T00:33:16;18.90;83.40
68235;DHT22;55052;52.056;5.296;2023-07-29T00:35:43;18.80;83.40
68235;DHT22;55052;52.056;5.296;2023-07-29T00:38:10;18.80;83.50
68235;DHT22;55052;52.056;5.296;2023-07-29T00:40:37;18.80;83.70
68235;DHT22;55052;52.056;5.296;2023-07-29T00:43:04;18.80;84.00
68235;DHT22;55052;52.056;5.296;2023-07-29T00:45:32;18.80;84.10
68235;DHT22;55052;52.056;5.296;2023-07-29T00:48:00;18.80;84.20
68235;DHT22;55052;52.056;5.296;2023-07-29T00:50:29;18.80;84.40
68235;DHT22;55052;52.056;5.296;2023-07-29T00:52:57;18.80;84.50
68235;DHT22;55052;52.056;5.296;2023-07-29T00:55:24;18.80;84.50
68235;DHT22;55052;52.056;5.296;2023-07-29T00:57:51;18.80;84.50
68235;DHT22;55052;52.056;5.296;2023-07-29T01:00:21;18.80;84.60
68235;DHT22;55052;52.056;5.296;2023-07-29T01:02:48;18.80;84.50
68235;DHT22;55052;52.056;5.296;2023-07-29T01:05:16;18.80;84.60
68235;DHT22;55052;52.056;5.296;2023-07-29T01:07:55;18.80;84.60
68235;DHT22;55052;52.056;5.296;2023-07-29T01:13:31;18.80;84.60
68235;DHT22;55052;52.056;5.296;2023-07-29T01:16:02;18.80;84.60
68235;DHT22;55052;52.056;5.296;2023-07-29T01:18:35;18.70;84.60
68235;DHT22;55052;52.056;5.296;2023-07-29T01:21:07;18.70;84.60
68235;DHT22;55052;52.056;5.296;2023-07-29T01:23:34;18.70;84.60
68235;DHT22;55052;52.056;5.296;2023-07-29T01:26:02;18.70;84.70
68235;DHT22;55052;52.056;5.296;2023-07-29T01:28:29;18.70;84.70
68235;DHT22;55052;52.056;5.296;2023-07-29T01:33:42;18.70;84.80
68235;DHT22;55052;52.056;5.296;2023-07-29T01:36:20;18.70;84.90
68235;DHT22;55052;52.056;5.296;2023-07-29T01:38:49;18.70;84.80
68235;DHT22;55052;52.056;5.296;2023-07-29T01:41:18;18.70;84.80
68235;DHT22;55052;52.056;5.296;2023-07-29T01:43:45;18.70;84.80
68235;DHT22;55052;52.056;5.296;2023-07-29T01:46:14;18.60;84.80
68235;DHT22;55052;52.056;5.296;2023-07-29T01:48:41;18.60;84.80
68235;DHT22;55052;52.056;5.296;2023-07-29T01:51:09;18.60;84.80
68235;DHT22;55052;52.056;5.296;2023-07-29T01:53:36;18.60;84.80
68235;DHT22;55052;52.056;5.296;2023-07-29T01:56:03;18.60;85.00
68235;DHT22;55052;52.056;5.296;2023-07-29T01:58:29;18.50;85.10
68235;DHT22;55052;52.056;5.296;2023-07-29T02:00:57;18.60;85.20
68235;DHT22;55052;52.056;5.296;2023-07-29T02:03:24;18.60;85.20
68235;DHT22;55052;52.056;5.296;2023-07-29T02:05:51;18.60;85.30
68235;DHT22;55052;52.056;5.296;2023-07-29T02:08:17;18.60;85.30
68235;DHT22;55052;52.056;5.296;2023-07-29T02:10:44;18.60;85.40
68235;DHT22;55052;52.056;5.296;2023-07-29T02:13:12;18.60;85.50
68235;DHT22;55052;52.056;5.296;2023-07-29T02:15:39;18.60;85.50
68235;DHT22;55052;52.056;5.296;2023-07-29T02:18:05;18.60;85.50
68235;DHT22;55052;52.056;5.296;2023-07-29T02:20:33;18.60;85.60
68235;DHT22;55052;52.056;5.296;2023-07-29T02:23:00;18.60;85.50
68235;DHT22;55052;52.056;5.296;2023-07-29T02:25:27;18.60;85.50
68235;DHT22;55052;52.056;5.296;2023-07-29T02:27:54;18.60;85.60
68235;DHT22;55052;52.056;5.296;2023-07-29T02:30:21;18.60;85.60
68235;DHT22;55052;52.056;5.296;2023-07-29T02:32:48;18.50;85.70
68235;DHT22;55052;52.056;5.296;2023-07-29T02:35:15;18.50;85.90
68235;DHT22;55052;52.056;5.296;2023-07-29T02:37:42;18.50;86.00
68235;DHT22;55052;52.056;5.296;2023-07-29T02:40:09;18.50;86.20
68235;DHT22;55052;52.056;5.296;2023-07-29T02:42:36;18.50;86.30
68235;DHT22;55052;52.056;5.296;2023-07-29T02:45:03;18.50;86.30
68235;DHT22;55052;52.056;5.296;2023-07-29T02:47:30;18.50;86.40
68235;DHT22;55052;52.056;5.296;2023-07-29T02:49:56;18.50;86.40
68235;DHT22;55052;52.056;5.296;2023-07-29T02:52:23;18.60;86.50
68235;DHT22;55052;52.056;5.296;2023-07-29T02:54:50;18.60;86.60
68235;DHT22;55052;52.056;5.296;2023-07-29T02:57:17;18.60;86.60
68235;DHT22;55052;52.056;5.296;2023-07-29T02:59:44;18.60;86.70
68235;DHT22;55052;52.056;5.296;2023-07-29T03:02:11;18.60;86.60
68235;DHT22;55052;52.056;5.296;2023-07-29T03:04:38;18.50;86.60
68235;DHT22;55052;52.056;5.296;2023-07-29T03:07:04;18.50;86.50
68235;DHT22;55052;52.056;5.296;2023-07-29T03:09:31;18.50;86.60
68235;DHT22;55052;52.056;5.296;2023-07-29T03:11:59;18.60;86.50
68235;DHT22;55052;52.056;5.296;2023-07-29T03:14:27;18.60;86.60
68235;DHT22;55052;52.056;5.296;2023-07-29T03:16:54;18.50;86.50
68235;DHT22;55052;52.056;5.296;2023-07-29T03:19:21;18.50;86.40
68235;DHT22;55052;52.056;5.296;2023-07-29T03:21:48;18.50;87.20
68235;DHT22;55052;52.056;5.296;2023-07-29T03:24:15;18.50;86.30
68235;DHT22;55052;52.056;5.296;2023-07-29T03:26:42;18.50;86.40
68235;DHT22;55052;52.056;5.296;2023-07-29T03:29:12;18.50;86.30
68235;DHT22;55052;52.056;5.296;2023-07-29T03:31:39;18.50;86.50
68235;DHT22;55052;52.056;5.296;2023-07-29T03:34:05;18.40;86.50
68235;DHT22;55052;52.056;5.296;2023-07-29T03:36:32;18.40;86.50
68235;DHT22;55052;52.056;5.296;2023-07-29T03:39:00;18.40;86.60
68235;DHT22;55052;52.056;5.296;2023-07-29T03:41:27;18.40;86.50
68235;DHT22;55052;52.056;5.296;2023-07-29T03:43:53;18.40;86.60
68235;DHT22;55052;52.056;5.296;2023-07-29T03:46:20;18.40;86.60
68235;DHT22;55052;52.056;5.296;2023-07-29T03:48:48;18.40;87.10
68235;DHT22;55052;52.056;5.296;2023-07-29T03:51:15;18.40;86.60
68235;DHT22;55052;52.056;5.296;2023-07-29T03:53:42;18.40;86.80
68235;DHT22;55052;52.056;5.296;2023-07-29T03:56:09;18.40;86.90
68235;DHT22;55052;52.056;5.296;2023-07-29T03:58:36;18.40;86.90
68235;DHT22;55052;52.056;5.296;2023-07-29T04:01:02;18.30;87.00
68235;DHT22;55052;52.056;5.296;2023-07-29T04:03:31;18.30;87.00
68235;DHT22;55052;52.056;5.296;2023-07-29T04:05:58;18.30;87.00
68235;DHT22;55052;52.056;5.296;2023-07-29T04:08:25;18.30;87.00
68235;DHT22;55052;52.056;5.296;2023-07-29T04:10:52;18.30;87.00
68235;DHT22;55052;52.056;5.296;2023-07-29T04:13:19;18.30;87.10
68235;DHT22;55052;52.056;5.296;2023-07-29T04:15:46;18.30;87.10
68235;DHT22;55052;52.056;5.296;2023-07-29T04:18:13;18.30;87.00
68235;DHT22;55052;52.056;5.296;2023-07-29T04:20:40;18.30;87.00
68235;DHT22;55052;52.056;5.296;2023-07-29T04:23:06;18.30;86.90
68235;DHT22;55052;52.056;5.296;2023-07-29T04:25:33;18.30;86.90
68235;DHT22;55052;52.056;5.296;2023-07-29T04:28:00;18.30;86.80
68235;DHT22;55052;52.056;5.296;2023-07-29T04:30:29;18.30;86.70
68235;DHT22;55052;52.056;5.296;2023-07-29T04:32:56;18.20;86.70
68235;DHT22;55052;52.056;5.296;2023-07-29T04:35:23;18.20;86.60
68235;DHT22;55052;52.056;5.296;2023-07-29T04:37:50;18.20;86.60
68235;DHT22;55052;52.056;5.296;2023-07-29T04:40:16;18.20;87.40
68235;DHT22;55052;52.056;5.296;2023-07-29T04:42:43;18.20;86.50
68235;DHT22;55052;52.056;5.296;2023-07-29T04:45:10;18.20;86.50
68235;DHT22;55052;52.056;5.296;2023-07-29T04:47:37;18.20;86.50
68235;DHT22;55052;52.056;5.296;2023-07-29T04:50:04;18.20;86.50
68235;DHT22;55052;52.056;5.296;2023-07-29T04:52:31;18.20;86.50
68235;DHT22;55052;52.056;5.296;2023-07-29T04:54:58;18.20;86.50
68235;DHT22;55052;52.056;5.296;2023-07-29T04:57:25;18.20;86.50
68235;DHT22;55052;52.056;5.296;2023-07-29T04:59:52;18.20;86.50
68235;DHT22;55052;52.056;5.296;2023-07-29T05:02:18;18.20;86.50
68235;DHT22;55052;52.056;5.296;2023-07-29T05:04:45;18.20;86.50
68235;DHT22;55052;52.056;5.296;2023-07-29T05:07:12;18.20;86.60
68235;DHT22;55052;52.056;5.296;2023-07-29T05:09:39;18.20;86.70
68235;DHT22;55052;52.056;5.296;2023-07-29T05:12:06;18.20;86.70
68235;DHT22;55052;52.056;5.296;2023-07-29T05:14:33;18.20;86.90
68235;DHT22;55052;52.056;5.296;2023-07-29T05:16:59;18.20;87.00
68235;DHT22;55052;52.056;5.296;2023-07-29T05:19:27;18.20;86.90
68235;DHT22;55052;52.056;5.296;2023-07-29T05:21:54;18.20;87.00
68235;DHT22;55052;52.056;5.296;2023-07-29T05:24:20;18.20;87.00
68235;DHT22;55052;52.056;5.296;2023-07-29T05:26:47;18.20;87.20
68235;DHT22;55052;52.056;5.296;2023-07-29T05:29:14;18.20;87.30
68235;DHT22;55052;52.056;5.296;2023-07-29T05:31:41;18.20;87.40
68235;DHT22;55052;52.056;5.296;2023-07-29T05:34:07;18.20;87.40
68235;DHT22;55052;52.056;5.296;2023-07-29T05:36:35;18.30;87.50
68235;DHT22;55052;52.056;5.296;2023-07-29T05:39:02;18.30;87.50
68235;DHT22;55052;52.056;5.296;2023-07-29T05:41:29;18.30;87.60
68235;DHT22;55052;52.056;5.296;2023-07-29T05:43:55;18.30;87.60
68235;DHT22;55052;52.056;5.296;2023-07-29T05:46:22;18.30;87.70
68235;DHT22;55052;52.056;5.296;2023-07-29T05:48:49;18.40;87.80
68235;DHT22;55052;52.056;5.296;2023-07-29T05:51:16;18.40;87.80
68235;DHT22;55052;52.056;5.296;2023-07-29T05:53:43;18.40;87.80
68235;DHT22;55052;52.056;5.296;2023-07-29T05:56:09;18.50;87.90
68235;DHT22;55052;52.056;5.296;2023-07-29T05:58:37;18.50;88.00
68235;DHT22;55052;52.056;5.296;2023-07-29T06:01:03;18.60;88.00
68235;DHT22;55052;52.056;5.296;2023-07-29T06:03:30;18.60;88.00
68235;DHT22;55052;52.056;5.296;2023-07-29T06:05:57;18.60;88.00
68235;DHT22;55052;52.056;5.296;2023-07-29T06:08:24;18.70;88.10
68235;DHT22;55052;52.056;5.296;2023-07-29T06:10:51;18.70;88.10
68235;DHT22;55052;52.056;5.296;2023-07-29T06:13:18;18.80;88.20
68235;DHT22;55052;52.056;5.296;2023-07-29T06:15:44;18.80;88.20
68235;DHT22;55052;52.056;5.296;2023-07-29T06:18:11;18.90;88.30
68235;DHT22;55052;52.056;5.296;2023-07-29T06:20:38;19.00;88.30
68235;DHT22;55052;52.056;5.296;2023-07-29T06:23:05;19.00;88.30
68235;DHT22;55052;52.056;5.296;2023-07-29T06:25:31;19.10;88.30
68235;DHT22;55052;52.056;5.296;2023-07-29T06:27:58;19.10;88.20
68235;DHT22;55052;52.056;5.296;2023-07-29T06:30:25;19.20;88.00
68235;DHT22;55052;52.056;5.296;2023-07-29T06:32:52;19.20;88.00
68235;DHT22;55052;52.056;5.296;2023-07-29T06:35:19;19.30;88.00
68235;DHT22;55052;52.056;5.296;2023-07-29T06:37:46;19.30;87.90
68235;DHT22;55052;52.056;5.296;2023-07-29T06:40:13;19.30;87.70
68235;DHT22;55052;52.056;5.296;2023-07-29T06:42:39;19.40;87.70
68235;DHT22;55052;52.056;5.296;2023-07-29T06:45:07;19.40;87.50
68235;DHT22;55052;52.056;5.296;2023-07-29T06:47:34;19.40;87.50
68235;DHT22;55052;52.056;5.296;2023-07-29T06:50:00;19.40;87.40
68235;DHT22;55052;52.056;5.296;2023-07-29T06:52:27;19.50;87.40
68235;DHT22;55052;52.056;5.296;2023-07-29T06:54:54;19.50;87.10
68235;DHT22;55052;52.056;5.296;2023-07-29T06:57:21;19.60;87.10
68235;DHT22;55052;52.056;5.296;2023-07-29T06:59:48;19.60;87.00
68235;DHT22;55052;52.056;5.296;2023-07-29T07:02:14;19.60;87.70
68235;DHT22;55052;52.056;5.296;2023-07-29T07:04:41;19.60;86.70
68235;DHT22;55052;52.056;5.296;2023-07-29T07:07:09;19.70;86.60
68235;DHT22;55052;52.056;5.296;2023-07-29T07:09:35;19.70;86.40
68235;DHT22;55052;52.056;5.296;2023-07-29T07:12:02;19.70;86.40
68235;DHT22;55052;52.056;5.296;2023-07-29T07:14:29;19.70;86.40
68235;DHT22;55052;52.056;5.296;2023-07-29T07:16:56;19.80;86.40
68235;DHT22;55052;52.056;5.296;2023-07-29T07:19:23;19.80;86.40
68235;DHT22;55052;52.056;5.296;2023-07-29T07:21:49;19.80;86.30
68235;DHT22;55052;52.056;5.296;2023-07-29T07:24:16;19.80;86.20
68235;DHT22;55052;52.056;5.296;2023-07-29T07:26:43;19.80;86.20
68235;DHT22;55052;52.056;5.296;2023-07-29T07:29:10;19.80;86.10
68235;DHT22;55052;52.056;5.296;2023-07-29T07:31:36;19.90;86.20
68235;DHT22;55052;52.056;5.296;2023-07-29T07:34:03;19.90;86.10
68235;DHT22;55052;52.056;5.296;2023-07-29T07:36:30;19.90;86.10
68235;DHT22;55052;52.056;5.296;2023-07-29T07:38:57;19.90;86.00
68235;DHT22;55052;52.056;5.296;2023-07-29T07:41:24;19.90;86.20
68235;DHT22;55052;52.056;5.296;2023-07-29T07:43:51;20.00;86.20
68235;DHT22;55052;52.056;5.296;2023-07-29T07:46:17;20.00;86.10
68235;DHT22;55052;52.056;5.296;2023-07-29T07:48:44;20.10;86.10
68235;DHT22;55052;52.056;5.296;2023-07-29T07:51:12;20.20;85.90
68235;DHT22;55052;52.056;5.296;2023-07-29T07:53:39;20.20;85.70
68235;DHT22;55052;52.056;5.296;2023-07-29T07:56:07;20.20;85.60
68235;DHT22;55052;52.056;5.296;2023-07-29T07:58:34;20.30;85.50
68235;DHT22;55052;52.056;5.296;2023-07-29T08:01:02;20.30;85.50
68235;DHT22;55052;52.056;5.296;2023-07-29T08:03:29;20.40;85.60
68235;DHT22;55052;52.056;5.296;2023-07-29T08:05:56;20.40;85.40
68235;DHT22;55052;52.056;5.296;2023-07-29T08:08:23;20.40;85.10
68235;DHT22;55052;52.056;5.296;2023-07-29T08:10:50;20.50;85.00
68235;DHT22;55052;52.056;5.296;2023-07-29T08:13:17;20.50;84.70
68235;DHT22;55052;52.056;5.296;2023-07-29T08:15:49;20.60;84.70
68235;DHT22;55052;52.056;5.296;2023-07-29T08:18:16;20.70;84.30
68235;DHT22;55052;52.056;5.296;2023-07-29T08:23:21;20.80;83.60
68235;DHT22;55052;52.056;5.296;2023-07-29T08:25:55;20.80;83.40
68235;DHT22;55052;52.056;5.296;2023-07-29T08:28:23;20.80;83.20
68235;DHT22;55052;52.056;5.296;2023-07-29T08:30:50;20.80;83.10
68235;DHT22;55052;52.056;5.296;2023-07-29T08:33:17;20.90;83.10
68235;DHT22;55052;52.056;5.296;2023-07-29T08:35:44;20.90;82.80
68235;DHT22;55052;52.056;5.296;2023-07-29T08:38:11;20.90;82.20
68235;DHT22;55052;52.056;5.296;2023-07-29T08:40:45;20.90;81.90
68235;DHT22;55052;52.056;5.296;2023-07-29T08:43:19;21.00;81.80
68235;DHT22;55052;52.056;5.296;2023-07-29T08:45:46;21.00;81.70
68235;DHT22;55052;52.056;5.296;2023-07-29T08:48:15;21.00;81.40
68235;DHT22;55052;52.056;5.296;2023-07-29T08:50:46;20.90;81.50
68235;DHT22;55052;52.056;5.296;2023-07-29T08:53:13;20.90;81.40
68235;DHT22;55052;52.056;5.296;2023-07-29T08:55:40;21.00;81.50
68235;DHT22;55052;52.056;5.296;2023-07-29T08:58:07;21.00;81.60
68235;DHT22;55052;52.056;5.296;2023-07-29T09:00:34;21.00;81.60
68235;DHT22;55052;52.056;5.296;2023-07-29T09:03:01;21.10;81.40
68235;DHT22;55052;52.056;5.296;2023-07-29T09:05:33;21.10;81.30
68235;DHT22;55052;52.056;5.296;2023-07-29T09:08:02;21.10;81.10
68235;DHT22;55052;52.056;5.296;2023-07-29T09:10:30;21.20;80.90
68235;DHT22;55052;52.056;5.296;2023-07-29T09:13:01;21.10;80.50
68235;DHT22;55052;52.056;5.296;2023-07-29T09:15:31;21.20;80.40
68235;DHT22;55052;52.056;5.296;2023-07-29T09:17:59;21.20;80.30
68235;DHT22;55052;52.056;5.296;2023-07-29T09:20:35;21.20;80.30
68235;DHT22;55052;52.056;5.296;2023-07-29T09:23:01;21.30;80.20
68235;DHT22;55052;52.056;5.296;2023-07-29T09:25:29;21.30;79.90
68235;DHT22;55052;52.056;5.296;2023-07-29T09:27:59;21.40;79.80
68235;DHT22;55052;52.056;5.296;2023-07-29T09:30:27;21.40;79.50
68235;DHT22;55052;52.056;5.296;2023-07-29T09:32:58;21.40;79.20
68235;DHT22;55052;52.056;5.296;2023-07-29T09:35:28;21.50;78.90
68235;DHT22;55052;52.056;5.296;2023-07-29T09:37:55;21.50;78.60
68235;DHT22;55052;52.056;5.296;2023-07-29T09:40:21;21.50;78.60
68235;DHT22;55052;52.056;5.296;2023-07-29T09:42:54;21.50;78.50
68235;DHT22;55052;52.056;5.296;2023-07-29T09:45:22;21.50;78.40
68235;DHT22;55052;52.056;5.296;2023-07-29T09:47:50;21.50;78.30
68235;DHT22;55052;52.056;5.296;2023-07-29T09:50:17;21.50;79.20
68235;DHT22;55052;52.056;5.296;2023-07-29T09:52:45;21.50;78.40
68235;DHT22;55052;52.056;5.296;2023-07-29T09:55:13;21.50;78.30
68235;DHT22;55052;52.056;5.296;2023-07-29T09:57:40;21.50;78.20
68235;DHT22;55052;52.056;5.296;2023-07-29T10:00:10;21.60;78.00
68235;DHT22;55052;52.056;5.296;2023-07-29T10:02:41;21.60;77.90
68235;DHT22;55052;52.056;5.296;2023-07-29T10:05:09;21.70;77.60
68235;DHT22;55052;52.056;5.296;2023-07-29T10:07:37;21.70;77.60
68235;DHT22;55052;52.056;5.296;2023-07-29T10:10:06;21.80;77.40
68235;DHT22;55052;52.056;5.296;2023-07-29T10:12:34;21.90;77.10
68235;DHT22;55052;52.056;5.296;2023-07-29T10:15:06;21.90;77.00
68235;DHT22;55052;52.056;5.296;2023-07-29T10:17:35;21.90;76.70
68235;DHT22;55052;52.056;5.296;2023-07-29T10:20:07;22.00;76.50
68235;DHT22;55052;52.056;5.296;2023-07-29T10:22:42;22.00;76.40
68235;DHT22;55052;52.056;5.296;2023-07-29T10:25:11;22.00;76.30
68235;DHT22;55052;52.056;5.296;2023-07-29T10:30:13;22.00;75.70
68235;DHT22;55052;52.056;5.296;2023-07-29T10:32:44;22.10;75.70
68235;DHT22;55052;52.056;5.296;2023-07-29T10:35:15;22.00;75.50
68235;DHT22;55052;52.056;5.296;2023-07-29T10:37:43;22.10;75.60
68235;DHT22;55052;52.056;5.296;2023-07-29T10:40:11;22.00;75.50
68235;DHT22;55052;52.056;5.296;2023-07-29T10:42:39;22.10;75.50
68235;DHT22;55052;52.056;5.296;2023-07-29T10:45:25;22.00;75.30
68235;DHT22;55052;52.056;5.296;2023-07-29T10:47:52;22.00;76.00
68235;DHT22;55052;52.056;5.296;2023-07-29T10:50:21;21.90;76.60
68235;DHT22;55052;52.056;5.296;2023-07-29T10:52:52;21.80;77.30
68235;DHT22;55052;52.056;5.296;2023-07-29T10:55:35;21.80;78.20
68235;DHT22;55052;52.056;5.296;2023-07-29T10:58:12;21.70;79.20
68235;DHT22;55052;52.056;5.296;2023-07-29T11:00:42;21.60;80.10
68235;DHT22;55052;52.056;5.296;2023-07-29T11:03:09;21.60;80.50
68235;DHT22;55052;52.056;5.296;2023-07-29T11:08:25;21.50;81.40
68235;DHT22;55052;52.056;5.296;2023-07-29T11:11:04;21.40;81.50
68235;DHT22;55052;52.056;5.296;2023-07-29T11:13:34;21.40;82.10
68235;DHT22;55052;52.056;5.296;2023-07-29T11:16:01;21.40;82.20
68235;DHT22;55052;52.056;5.296;2023-07-29T11:18:30;21.40;82.50
68235;DHT22;55052;52.056;5.296;2023-07-29T11:20:57;21.30;82.70
68235;DHT22;55052;52.056;5.296;2023-07-29T11:23:32;21.40;83.80
68235;DHT22;55052;52.056;5.296;2023-07-29T11:26:00;21.30;83.20
68235;DHT22;55052;52.056;5.296;2023-07-29T11:28:28;21.30;83.40
68235;DHT22;55052;52.056;5.296;2023-07-29T11:30:56;21.30;83.50
68235;DHT22;55052;52.056;5.296;2023-07-29T11:33:24;21.30;83.70
68235;DHT22;55052;52.056;5.296;2023-07-29T11:35:52;21.30;83.90
68235;DHT22;55052;52.056;5.296;2023-07-29T11:38:20;21.20;84.00
68235;DHT22;55052;52.056;5.296;2023-07-29T11:40:59;21.20;84.00
68235;DHT22;55052;52.056;5.296;2023-07-29T11:43:27;21.20;84.20
68235;DHT22;55052;52.056;5.296;2023-07-29T11:45:54;21.10;85.20
68235;DHT22;55052;52.056;5.296;2023-07-29T11:48:27;21.00;84.50
68235;DHT22;55052;52.056;5.296;2023-07-29T11:50:54;21.00;84.80
68235;DHT22;55052;52.056;5.296;2023-07-29T11:53:22;21.00;84.90
68235;DHT22;55052;52.056;5.296;2023-07-29T11:55:52;21.00;85.20
68235;DHT22;55052;52.056;5.296;2023-07-29T11:58:20;21.00;85.60
68235;DHT22;55052;52.056;5.296;2023-07-29T12:00:48;21.00;86.00
68235;DHT22;55052;52.056;5.296;2023-07-29T12:03:16;21.00;86.20
68235;DHT22;55052;52.056;5.296;2023-07-29T12:05:45;21.00;87.30
68235;DHT22;55052;52.056;5.296;2023-07-29T12:08:12;21.10;86.90
68235;DHT22;55052;52.056;5.296;2023-07-29T12:10:39;21.10;87.40
68235;DHT22;55052;52.056;5.296;2023-07-29T12:13:08;21.20;87.70
68235;DHT22;55052;52.056;5.296;2023-07-29T12:15:34;21.30;87.70
68235;DHT22;55052;52.056;5.296;2023-07-29T12:18:04;21.30;87.60
68235;DHT22;55052;52.056;5.296;2023-07-29T12:20:31;21.40;87.60
68235;DHT22;55052;52.056;5.296;2023-07-29T12:22:59;21.50;87.80
68235;DHT22;55052;52.056;5.296;2023-07-29T12:25:28;21.50;87.70
68235;DHT22;55052;52.056;5.296;2023-07-29T12:27:55;21.60;87.50
68235;DHT22;55052;52.056;5.296;2023-07-29T12:30:23;21.60;87.70
68235;DHT22;55052;52.056;5.296;2023-07-29T12:32:51;21.60;87.00
68235;DHT22;55052;52.056;5.296;2023-07-29T12:35:18;21.60;86.40
68235;DHT22;55052;52.056;5.296;2023-07-29T12:37:45;21.70;86.40
68235;DHT22;55052;52.056;5.296;2023-07-29T12:40:25;21.70;86.40
68235;DHT22;55052;52.056;5.296;2023-07-29T12:42:52;21.70;86.10
68235;DHT22;55052;52.056;5.296;2023-07-29T12:45:19;21.70;86.00
68235;DHT22;55052;52.056;5.296;2023-07-29T12:47:49;21.70;86.20
68235;DHT22;55052;52.056;5.296;2023-07-29T12:50:16;21.70;85.90
68235;DHT22;55052;52.056;5.296;2023-07-29T12:52:43;21.80;86.70
68235;DHT22;55052;52.056;5.296;2023-07-29T12:55:10;21.90;85.80
68235;DHT22;55052;52.056;5.296;2023-07-29T12:57:42;21.90;85.50
68235;DHT22;55052;52.056;5.296;2023-07-29T13:00:10;22.00;85.20
68235;DHT22;55052;52.056;5.296;2023-07-29T13:02:37;22.10;85.00
68235;DHT22;55052;52.056;5.296;2023-07-29T13:05:05;22.10;84.70
68235;DHT22;55052;52.056;5.296;2023-07-29T13:07:32;22.20;84.20
68235;DHT22;55052;52.056;5.296;2023-07-29T13:10:00;22.30;83.10
68235;DHT22;55052;52.056;5.296;2023-07-29T13:12:27;22.40;82.60
68235;DHT22;55052;52.056;5.296;2023-07-29T13:14:54;22.50;82.10
68235;DHT22;55052;52.056;5.296;2023-07-29T13:17:21;22.70;81.70
68235;DHT22;55052;52.056;5.296;2023-07-29T13:19:49;22.80;81.20
68235;DHT22;55052;52.056;5.296;2023-07-29T13:22:16;23.00;80.70
68235;DHT22;55052;52.056;5.296;2023-07-29T13:24:42;23.20;80.10
68235;DHT22;55052;52.056;5.296;2023-07-29T13:27:09;23.30;80.10
68235;DHT22;55052;52.056;5.296;2023-07-29T13:29:36;23.40;78.00
68235;DHT22;55052;52.056;5.296;2023-07-29T13:32:03;23.50;77.60
68235;DHT22;55052;52.056;5.296;2023-07-29T13:34:30;23.60;77.10
68235;DHT22;55052;52.056;5.296;2023-07-29T13:37:00;23.70;76.50
68235;DHT22;55052;52.056;5.296;2023-07-29T13:39:27;23.90;76.20
68235;DHT22;55052;52.056;5.296;2023-07-29T13:41:54;24.20;76.30
68235;DHT22;55052;52.056;5.296;2023-07-29T13:44:21;24.40;75.40
68235;DHT22;55052;52.056;5.296;2023-07-29T13:46:48;24.60;75.00
68235;DHT22;55052;52.056;5.296;2023-07-29T13:49:15;24.80;74.30
68235;DHT22;55052;52.056;5.296;2023-07-29T13:51:41;24.90;73.40
68235;DHT22;55052;52.056;5.296;2023-07-29T13:54:09;25.10;72.60
68235;DHT22;55052;52.056;5.296;2023-07-29T13:56:36;25.30;71.20
68235;DHT22;55052;52.056;5.296;2023-07-29T13:59:03;25.40;69.90
68235;DHT22;55052;52.056;5.296;2023-07-29T14:01:30;25.50;69.60
68235;DHT22;55052;52.056;5.296;2023-07-29T14:03:56;25.50;69.10
68235;DHT22;55052;52.056;5.296;2023-07-29T14:06:23;25.50;68.50
68235;DHT22;55052;52.056;5.296;2023-07-29T14:09:09;25.40;68.00
68235;DHT22;55052;52.056;5.296;2023-07-29T14:11:35;25.20;68.10
68235;DHT22;55052;52.056;5.296;2023-07-29T14:14:03;25.10;68.00
68235;DHT22;55052;52.056;5.296;2023-07-29T14:16:30;25.10;68.80
68235;DHT22;55052;52.056;5.296;2023-07-29T14:18:56;25.20;69.10
68235;DHT22;55052;52.056;5.296;2023-07-29T14:21:23;25.30;69.40
68235;DHT22;55052;52.056;5.296;2023-07-29T14:23:50;25.40;68.90
68235;DHT22;55052;52.056;5.296;2023-07-29T14:26:17;25.50;67.80
68235;DHT22;55052;52.056;5.296;2023-07-29T14:28:43;25.40;67.00
68235;DHT22;55052;52.056;5.296;2023-07-29T14:31:10;25.30;66.30
68235;DHT22;55052;52.056;5.296;2023-07-29T14:33:37;25.20;65.90
68235;DHT22;55052;52.056;5.296;2023-07-29T14:36:04;25.10;65.80
68235;DHT22;55052;52.056;5.296;2023-07-29T14:38:31;25.10;66.60
68235;DHT22;55052;52.056;5.296;2023-07-29T14:40:58;25.10;66.40
68235;DHT22;55052;52.056;5.296;2023-07-29T14:43:24;25.10;65.70
68235;DHT22;55052;52.056;5.296;2023-07-29T14:45:51;25.00;65.00
68235;DHT22;55052;52.056;5.296;2023-07-29T14:48:18;25.00;64.90
68235;DHT22;55052;52.056;5.296;2023-07-29T14:50:45;24.90;65.70
68235;DHT22;55052;52.056;5.296;2023-07-29T14:53:12;24.90;64.80
68235;DHT22;55052;52.056;5.296;2023-07-29T14:55:38;24.80;64.80
68235;DHT22;55052;52.056;5.296;2023-07-29T14:58:05;24.70;65.80
68235;DHT22;55052;52.056;5.296;2023-07-29T15:00:32;24.60;64.70
68235;DHT22;55052;52.056;5.296;2023-07-29T15:03:00;24.40;64.70
68235;DHT22;55052;52.056;5.296;2023-07-29T15:05:28;24.40;64.70
68235;DHT22;55052;52.056;5.296;2023-07-29T15:07:55;24.30;64.90
68235;DHT22;55052;52.056;5.296;2023-07-29T15:10:22;24.20;65.00
68235;DHT22;55052;52.056;5.296;2023-07-29T15:12:48;24.20;65.50
68235;DHT22;55052;52.056;5.296;2023-07-29T15:15:15;24.20;65.60
68235;DHT22;55052;52.056;5.296;2023-07-29T15:17:42;24.20;65.70
68235;DHT22;55052;52.056;5.296;2023-07-29T15:20:10;24.20;65.50
68235;DHT22;55052;52.056;5.296;2023-07-29T15:22:37;24.20;65.80
68235;DHT22;55052;52.056;5.296;2023-07-29T15:25:04;24.20;65.70
68235;DHT22;55052;52.056;5.296;2023-07-29T15:27:31;24.20;65.80
68235;DHT22;55052;52.056;5.296;2023-07-29T15:29:58;24.10;65.80
68235;DHT22;55052;52.056;5.296;2023-07-29T15:32:25;24.10;65.90
68235;DHT22;55052;52.056;5.296;2023-07-29T15:34:52;24.00;65.90
68235;DHT22;55052;52.056;5.296;2023-07-29T15:37:19;24.00;65.60
68235;DHT22;55052;52.056;5.296;2023-07-29T15:39:45;23.90;65.80
68235;DHT22;55052;52.056;5.296;2023-07-29T15:42:12;23.90;66.50
68235;DHT22;55052;52.056;5.296;2023-07-29T15:44:39;23.80;67.80
68235;DHT22;55052;52.056;5.296;2023-07-29T15:47:06;23.70;68.90